Ainsworth, Iowa
Current Conditions -  °F | °C
As of 7:55 AM on Thursday 27 Nov 2014 (Local Time) from KAWG Reporting Station
Overcast Overcast  
Wind Chill:   Ceiling: 2500
Heat Index: 16°   Visibility: 10mi
Dew Point: 14°   Wind: 17mph
Humidity: 93%   Direction: 290°WNW
Pressure: 30.46"   Gusts: NA
Location:  41.29°N, 91.55°W
Report Text: KAWG 271355Z AUTO 29015KT 10SM OVC025 M09/M10 A3046 RMK AO2
Loading
Personal Weather Stations






























Interactive Weather Map New forecast layout! Learn more

10-Day Weather Forecast

Advertisements
Track Severe Weather on mobile